createdAt,value
2023-05-14T00:00:07.764Z,102105.59
2023-05-14T00:02:37.673Z,102107.56
2023-05-14T00:05:13.078Z,102097.06
2023-05-14T00:07:45.571Z,102092.63
2023-05-14T00:10:15.391Z,102096.91
2023-05-14T00:12:45.226Z,102090.81
2023-05-14T00:15:15.240Z,102094.38
2023-05-14T00:17:45.425Z,102093.66
2023-05-14T00:20:15.617Z,102084.72
2023-05-14T00:22:48.050Z,102083.38
2023-05-14T00:25:20.166Z,102075.53
2023-05-14T00:27:49.989Z,102073.72
2023-05-14T00:30:19.921Z,102071.09
2023-05-14T00:32:49.793Z,102068.75
2023-05-14T00:35:20.744Z,102065.38
2023-05-14T00:37:53.203Z,102055.31
2023-05-14T00:40:23.830Z,102049.16
2023-05-14T00:42:53.904Z,102052.78
2023-05-14T00:45:23.868Z,102054.44
2023-05-14T00:47:53.866Z,102050.91
2023-05-14T00:50:24.517Z,102046.31
2023-05-14T00:52:57.211Z,102042.06
2023-05-14T00:55:27.177Z,102034.22
2023-05-14T00:57:59.299Z,102039.75
2023-05-14T01:00:29.226Z,102040.69
2023-05-14T01:03:01.628Z,102031.84
2023-05-14T01:05:35.059Z,102029.19
2023-05-14T01:08:16.286Z,102029.38
2023-05-14T01:10:54.276Z,102032.91
2023-05-14T01:13:30.032Z,102035.66
2023-05-14T01:16:01.612Z,102035.88
2023-05-14T01:18:33.161Z,102038.22
2023-05-14T01:21:05.005Z,102038.22
2023-05-14T01:23:37.478Z,102042.47
2023-05-14T01:26:10.908Z,102043.50
2023-05-14T01:28:41.419Z,102044.44
2023-05-14T01:31:19.913Z,102036.69
2023-05-14T01:33:51.599Z,102035.88
2023-05-14T01:36:21.717Z,102041.41
2023-05-14T01:38:54.932Z,102049.53
2023-05-14T01:41:26.147Z,102040.97
2023-05-14T01:43:56.258Z,102036.53
2023-05-14T01:46:26.130Z,102035.56
2023-05-14T01:48:55.945Z,102025.66
2023-05-14T01:51:25.818Z,102025.53
2023-05-14T01:53:58.258Z,102024.75
2023-05-14T01:56:28.262Z,102023.91
2023-05-14T01:58:58.617Z,102015.78
2023-05-14T02:01:28.658Z,102017.59
2023-05-14T02:04:02.453Z,102001.69
2023-05-14T02:06:32.494Z,101998.97
2023-05-14T02:09:08.695Z,102002.25
2023-05-14T02:11:38.600Z,101998.16
2023-05-14T02:14:08.551Z,101986.63
2023-05-14T02:16:38.398Z,101990.78
2023-05-14T02:19:08.436Z,101995.94
2023-05-14T02:21:38.386Z,101991.22
2023-05-14T02:24:11.039Z,101990.34
2023-05-14T02:26:40.897Z,101989.34
2023-05-14T02:29:11.007Z,101988.50
2023-05-14T02:31:40.872Z,101985.09
2023-05-14T02:34:10.722Z,101980.03
2023-05-14T02:36:40.524Z,101961.44
2023-05-14T02:39:13.012Z,101961.56
2023-05-14T02:41:42.831Z,101960.91
2023-05-14T02:44:12.681Z,101966.91
2023-05-14T02:46:42.521Z,101964.41
2023-05-14T02:49:12.419Z,101951.13
2023-05-14T02:51:42.221Z,101944.91
2023-05-14T02:54:16.589Z,101945.81
2023-05-14T02:56:48.001Z,101951.13
2023-05-14T02:59:17.841Z,101954.63
2023-05-14T03:01:48.107Z,101958.16
2023-05-14T03:04:21.371Z,101953.75
2023-05-14T03:06:51.398Z,101964.41
2023-05-14T03:09:23.806Z,101960.03
2023-05-14T03:11:53.819Z,101945.03
2023-05-14T03:14:23.641Z,101953.75
2023-05-14T03:16:53.455Z,101952.09
2023-05-14T03:19:23.323Z,101952.09
2023-05-14T03:21:53.173Z,101942.59
2023-05-14T03:24:25.592Z,101945.28
2023-05-14T03:26:55.448Z,101943.63
2023-05-14T03:29:25.246Z,101950.75
2023-05-14T03:31:58.202Z,101945.69
2023-05-14T03:34:28.104Z,101950.19
2023-05-14T03:36:57.991Z,101956.16
2023-05-14T03:39:30.466Z,101948.03
2023-05-14T03:42:00.556Z,101953.53
2023-05-14T03:44:30.366Z,101946.56
2023-05-14T03:47:00.205Z,101951.81
2023-05-14T03:49:30.091Z,101950.97
2023-05-14T03:52:00.389Z,101951.72
2023-05-14T03:54:32.921Z,101949.16
2023-05-14T03:57:02.844Z,101943.88
2023-05-14T03:59:32.956Z,101944.78
2023-05-14T04:02:02.915Z,101947.44
2023-05-14T04:04:32.897Z,101950.06
2023-05-14T04:07:02.806Z,101945.81
2023-05-14T04:09:35.308Z,101951.53
2023-05-14T04:12:05.189Z,101961.25
2023-05-14T04:14:35.026Z,101954.09
2023-05-14T04:17:04.872Z,101954.06
2023-05-14T04:19:34.723Z,101952.22
2023-05-14T04:22:04.540Z,101955.78
2023-05-14T04:24:37.772Z,101949.59
2023-05-14T04:27:08.216Z,101953.28
2023-05-14T04:29:38.025Z,101937.56
2023-05-14T04:32:08.796Z,101940.84
2023-05-14T04:34:39.483Z,101948.91
2023-05-14T04:37:09.345Z,101940.19
2023-05-14T04:39:41.919Z,101950.97
2023-05-14T04:42:11.757Z,101937.84
2023-05-14T04:44:43.176Z,101937.19
2023-05-14T04:47:13.017Z,101943.38
2023-05-14T04:49:43.582Z,101942.19
2023-05-14T04:52:13.576Z,101942.75
2023-05-14T04:54:46.110Z,101932.16
2023-05-14T04:57:16.000Z,101934.09
2023-05-14T04:59:45.876Z,101933.56
2023-05-14T05:02:15.727Z,101931.06
2023-05-14T05:04:45.692Z,101929.97
2023-05-14T05:07:16.270Z,101933.44
2023-05-14T05:09:48.718Z,101934.66
2023-05-14T05:12:19.684Z,101930.34
2023-05-14T05:14:49.543Z,101927.84
2023-05-14T05:17:20.927Z,101939.50
2023-05-14T05:19:50.759Z,101941.63
2023-05-14T05:22:20.662Z,101944.63
2023-05-14T05:24:53.208Z,101937.94
2023-05-14T05:27:23.486Z,101933.81
2023-05-14T05:29:53.420Z,101926.19
2023-05-14T05:32:23.460Z,101937.91
2023-05-14T05:34:55.027Z,101930.47
2023-05-14T05:37:24.877Z,101925.63
2023-05-14T05:39:57.322Z,101930.56
2023-05-14T05:42:27.668Z,101929.19
2023-05-14T05:44:57.767Z,101943.84
2023-05-14T05:47:27.616Z,101944.19
2023-05-14T05:49:57.544Z,101943.72
2023-05-14T05:52:27.401Z,101937.00
2023-05-14T05:55:00.604Z,101938.16
2023-05-14T05:57:30.693Z,101932.38
2023-05-14T06:00:01.218Z,101939.75
2023-05-14T06:02:31.141Z,101942.03
2023-05-14T06:05:03.665Z,101946.56
2023-05-14T06:07:33.489Z,101943.34
2023-05-14T06:10:06.609Z,101944.53
2023-05-14T06:12:36.467Z,101942.00
2023-05-14T06:15:06.748Z,101939.44
2023-05-14T06:17:36.628Z,101942.00
2023-05-14T06:20:08.180Z,101936.69
2023-05-14T06:22:38.004Z,101944.16
2023-05-14T06:25:11.706Z,101949.38
2023-05-14T06:27:42.479Z,101953.69
2023-05-14T06:30:13.741Z,101953.44
2023-05-14T06:32:43.722Z,101953.00
2023-05-14T06:35:13.734Z,101954.31
2023-05-14T06:37:45.120Z,101961.16
2023-05-14T06:40:18.535Z,101961.78
2023-05-14T06:42:48.319Z,101962.31
2023-05-14T06:45:18.326Z,101956.94
2023-05-14T06:47:48.216Z,101956.66
2023-05-14T06:50:18.180Z,101957.34
2023-05-14T06:52:48.382Z,101950.91
2023-05-14T06:55:21.025Z,101940.00
2023-05-14T06:57:51.156Z,101931.94
2023-05-14T07:00:23.226Z,101940.22
2023-05-14T07:02:53.326Z,101942.88
2023-05-14T07:05:27.737Z,101939.63
2023-05-14T07:07:57.572Z,101936.56
2023-05-14T07:10:31.138Z,101941.47
2023-05-14T07:13:01.001Z,101937.47
2023-05-14T07:15:31.077Z,101942.03
2023-05-14T07:18:00.942Z,101930.75
2023-05-14T07:20:30.842Z,101942.06
2023-05-14T07:23:00.690Z,101929.19
2023-05-14T07:25:33.135Z,101925.28
2023-05-14T07:28:02.963Z,101912.38
2023-05-14T07:30:32.795Z,101926.56
2023-05-14T07:33:02.688Z,101930.53
2023-05-14T07:35:32.572Z,101927.44
2023-05-14T07:38:02.526Z,101930.34
2023-05-14T07:40:35.003Z,101935.88
2023-05-14T07:43:04.880Z,101921.75
2023-05-14T07:45:37.907Z,101921.34
2023-05-14T07:48:08.175Z,101931.22
2023-05-14T07:50:38.261Z,101930.69
2023-05-14T07:53:08.230Z,101925.72
2023-05-14T07:55:40.690Z,101935.00
2023-05-14T07:58:10.686Z,101926.19
2023-05-14T08:00:40.465Z,101926.38
2023-05-14T08:03:10.339Z,101926.88
2023-05-14T08:05:40.449Z,101934.97
2023-05-14T08:08:11.082Z,101925.16
2023-05-14T08:10:43.592Z,101934.19
2023-05-14T08:13:13.473Z,101933.78
2023-05-14T08:15:43.273Z,101920.25
2023-05-14T08:18:13.188Z,101920.22
2023-05-14T08:20:43.047Z,101911.31
2023-05-14T08:23:14.702Z,101917.50
2023-05-14T08:25:52.493Z,101921.03
2023-05-14T08:28:23.383Z,101928.16
2023-05-14T08:30:57.670Z,101931.63
2023-05-14T08:33:30.262Z,101930.66
2023-05-14T08:36:00.755Z,101922.88
2023-05-14T08:38:30.603Z,101924.31
2023-05-14T08:41:03.651Z,101934.50
2023-05-14T08:43:39.464Z,101935.69
2023-05-14T08:46:10.268Z,101922.72
2023-05-14T08:48:43.752Z,101915.84
2023-05-14T08:51:13.818Z,101920.06
2023-05-14T08:53:43.819Z,101920.13
2023-05-14T08:56:17.848Z,101911.97
2023-05-14T08:58:47.825Z,101905.81
2023-05-14T09:01:17.755Z,101902.53
2023-05-14T09:03:52.142Z,101904.47
2023-05-14T09:06:22.497Z,101896.41
2023-05-14T09:08:54.160Z,101893.94
2023-05-14T09:11:26.835Z,101895.38
2023-05-14T09:13:57.086Z,101890.53
2023-05-14T09:16:29.173Z,101899.59
2023-05-14T09:19:04.789Z,101898.69
2023-05-14T09:21:34.949Z,101898.56
2023-05-14T09:24:04.761Z,101889.91
2023-05-14T09:26:38.321Z,101900.84
2023-05-14T09:29:08.186Z,101900.44
2023-05-14T09:31:38.032Z,101901.63
2023-05-14T09:34:07.927Z,101902.56
2023-05-14T09:36:38.415Z,101887.56
2023-05-14T09:39:09.527Z,101881.66
2023-05-14T09:41:41.970Z,101888.03
2023-05-14T09:44:11.816Z,101885.59
2023-05-14T09:46:41.685Z,101877.00
2023-05-14T09:49:13.124Z,101882.66
2023-05-14T09:51:43.009Z,101885.44
2023-05-14T09:54:13.133Z,101885.41
2023-05-14T09:56:46.488Z,101872.41
2023-05-14T09:59:16.360Z,101870.50
2023-05-14T10:01:46.886Z,101860.53
2023-05-14T10:04:17.820Z,101867.72
2023-05-14T10:06:54.211Z,101867.88
2023-05-14T10:09:28.102Z,101869.59
2023-05-14T10:12:03.931Z,101861.44
2023-05-14T10:14:39.117Z,101854.28
2023-05-14T10:17:18.380Z,101856.22
2023-05-14T10:19:56.907Z,101844.88
2023-05-14T10:22:30.506Z,101854.78
2023-05-14T10:25:00.463Z,101853.97
2023-05-14T10:27:33.065Z,101843.28
2023-05-14T10:30:03.021Z,101854.06
2023-05-14T10:32:38.110Z,101844.41
2023-05-14T10:35:20.777Z,101849.75
2023-05-14T10:37:53.746Z,101838.25
2023-05-14T10:40:31.240Z,101829.38
2023-05-14T10:43:05.685Z,101834.69
2023-05-14T10:45:35.648Z,101839.28
2023-05-14T10:48:05.656Z,101828.94
2023-05-14T10:50:35.766Z,101828.09
2023-05-14T10:53:06.208Z,101824.72
2023-05-14T10:55:36.381Z,101814.09
2023-05-14T10:58:09.376Z,101819.56
2023-05-14T11:00:40.051Z,101817.91
2023-05-14T11:03:10.782Z,101813.69
2023-05-14T11:05:44.161Z,101814.78
2023-05-14T11:08:15.866Z,101814.81
2023-05-14T11:10:50.368Z,101803.38
2023-05-14T11:13:23.280Z,101804.28
2023-05-14T11:15:54.165Z,101808.00
2023-05-14T11:18:33.262Z,101801.88
2023-05-14T11:21:05.644Z,101795.66
2023-05-14T11:23:35.617Z,101794.00
2023-05-14T11:26:05.585Z,101791.47
2023-05-14T11:28:38.863Z,101785.34
2023-05-14T11:31:08.950Z,101781.00
2023-05-14T11:33:39.015Z,101781.16
2023-05-14T11:36:11.077Z,101780.34
2023-05-14T11:38:51.706Z,101776.91
2023-05-14T11:41:23.535Z,101783.16
2023-05-14T11:43:58.411Z,101774.31
2023-05-14T11:46:30.273Z,101774.41
2023-05-14T11:49:00.155Z,101776.16
2023-05-14T11:51:30.013Z,101768.13
2023-05-14T11:54:00.051Z,101772.66
2023-05-14T11:56:30.231Z,101770.88
2023-05-14T11:59:02.836Z,101777.06
2023-05-14T12:01:35.199Z,101779.78
2023-05-14T12:04:06.970Z,101770.88
2023-05-14T12:06:37.042Z,101769.88
2023-05-14T12:09:09.124Z,101769.03
2023-05-14T12:11:40.051Z,101766.28
2023-05-14T12:14:19.282Z,101763.63
2023-05-14T12:16:49.782Z,101760.06
2023-05-14T12:19:23.782Z,101766.25
2023-05-14T12:21:57.009Z,101756.41
2023-05-14T12:24:28.780Z,101756.44
2023-05-14T12:26:58.636Z,101755.50
2023-05-14T12:29:31.297Z,101754.63
2023-05-14T12:32:04.863Z,101743.03
2023-05-14T12:34:35.958Z,101750.19
2023-05-14T12:37:07.474Z,101745.72
2023-05-14T12:39:38.174Z,101746.66
2023-05-14T12:42:08.412Z,101733.22
2023-05-14T12:44:43.467Z,101733.16
2023-05-14T12:47:13.622Z,101733.91
2023-05-14T12:49:45.054Z,101732.91
2023-05-14T12:52:22.754Z,101725.75
2023-05-14T12:54:55.856Z,101730.25
2023-05-14T12:57:25.673Z,101726.53
2023-05-14T12:59:58.487Z,101725.56
2023-05-14T13:02:28.309Z,101723.00
2023-05-14T13:04:58.156Z,101718.59
2023-05-14T13:07:27.994Z,101724.69
2023-05-14T13:09:57.801Z,101721.84
2023-05-14T13:12:27.589Z,101713.66
2023-05-14T13:15:00.056Z,101715.41
2023-05-14T13:17:30.027Z,101709.09
2023-05-14T13:20:11.276Z,101714.44
2023-05-14T13:22:41.316Z,101705.66
2023-05-14T13:25:12.327Z,101706.53
2023-05-14T13:27:42.137Z,101708.28
2023-05-14T13:30:15.247Z,101710.88
2023-05-14T13:32:45.045Z,101711.75
2023-05-14T13:35:15.598Z,101709.97
2023-05-14T13:37:46.229Z,101705.56
2023-05-14T13:40:19.200Z,101700.22
2023-05-14T13:42:48.968Z,101696.63
2023-05-14T13:45:21.626Z,101699.22
2023-05-14T13:47:51.844Z,101703.66
2023-05-14T13:50:23.206Z,101699.22
2023-05-14T13:52:52.996Z,101704.59
2023-05-14T13:55:23.161Z,101702.00
2023-05-14T13:57:53.709Z,101703.75
2023-05-14T14:00:28.946Z,101703.69
2023-05-14T14:02:58.831Z,101705.38
2023-05-14T14:05:31.973Z,101704.50
2023-05-14T14:08:13.153Z,101697.41
2023-05-14T14:10:52.455Z,101696.53
2023-05-14T14:13:22.996Z,101702.69
2023-05-14T14:15:55.634Z,101701.00
2023-05-14T14:18:25.580Z,101697.50
2023-05-14T14:20:55.503Z,101693.97
2023-05-14T14:23:25.308Z,101690.25
2023-05-14T14:25:55.131Z,101695.34
2023-05-14T14:28:24.948Z,101694.28
2023-05-14T14:30:59.732Z,101688.75
2023-05-14T14:33:29.674Z,101676.25
2023-05-14T14:35:59.496Z,101671.84
2023-05-14T14:38:29.467Z,101666.56
2023-05-14T14:41:00.665Z,101671.84
2023-05-14T14:43:30.567Z,101670.97
2023-05-14T14:46:05.591Z,101670.94
2023-05-14T14:48:37.929Z,101670.97
2023-05-14T14:51:08.769Z,101679.97
2023-05-14T14:53:40.578Z,101675.41
2023-05-14T14:56:13.662Z,101669.16
2023-05-14T14:58:43.457Z,101672.56
2023-05-14T15:01:16.131Z,101667.09
2023-05-14T15:03:48.699Z,101674.00
2023-05-14T15:06:18.511Z,101668.69
2023-05-14T15:08:50.656Z,101677.47
2023-05-14T15:11:20.686Z,101668.69
2023-05-14T15:13:50.498Z,101658.84
2023-05-14T15:16:22.889Z,101665.09
2023-05-14T15:18:55.107Z,101659.81
2023-05-14T15:21:25.008Z,101657.97
2023-05-14T15:23:54.812Z,101657.94
2023-05-14T15:26:26.497Z,101663.38
2023-05-14T15:28:56.449Z,101658.03
2023-05-14T15:31:28.958Z,101652.84
2023-05-14T15:33:58.808Z,101651.03
2023-05-14T15:36:28.788Z,101654.59
2023-05-14T15:39:01.136Z,101652.03
2023-05-14T15:41:31.497Z,101650.97
2023-05-14T15:44:01.476Z,101652.63
2023-05-14T15:46:34.176Z,101647.16
2023-05-14T15:49:04.081Z,101648.78
2023-05-14T15:51:33.942Z,101653.09
2023-05-14T15:54:05.372Z,101651.41
2023-05-14T15:56:35.237Z,101646.09
2023-05-14T15:59:05.132Z,101640.59
2023-05-14T16:01:37.566Z,101642.34
2023-05-14T16:04:09.168Z,101649.38
2023-05-14T16:06:44.394Z,101654.78
2023-05-14T16:09:15.051Z,101668.13
2023-05-14T16:11:45.264Z,101669.75
2023-05-14T16:14:15.152Z,101671.41
2023-05-14T16:16:48.469Z,101662.28
2023-05-14T16:19:18.479Z,101668.28
2023-05-14T16:21:48.421Z,101669.88
2023-05-14T16:24:21.176Z,101668.84
2023-05-14T16:26:51.749Z,101669.41
2023-05-14T16:29:21.581Z,101662.84
2023-05-14T16:31:54.150Z,101666.81
2023-05-14T16:34:24.064Z,101670.00
2023-05-14T16:36:54.695Z,101668.78
2023-05-14T16:39:24.555Z,101663.34
2023-05-14T16:41:54.369Z,101666.78
2023-05-14T16:44:24.262Z,101663.13
2023-05-14T16:46:56.918Z,101660.22
2023-05-14T16:49:26.889Z,101659.94
2023-05-14T16:51:56.834Z,101655.22
2023-05-14T16:54:26.935Z,101657.97
2023-05-14T16:56:56.862Z,101660.28
2023-05-14T16:59:26.763Z,101668.84
2023-05-14T17:01:59.802Z,101672.16
2023-05-14T17:04:33.719Z,101672.88
2023-05-14T17:07:10.187Z,101664.91
2023-05-14T17:09:40.340Z,101666.53
2023-05-14T17:12:13.073Z,101663.91
2023-05-14T17:14:45.629Z,101668.91
2023-05-14T17:17:18.093Z,101659.78
2023-05-14T17:19:48.553Z,101658.75
2023-05-14T17:22:18.445Z,101656.19
2023-05-14T17:24:48.313Z,101654.28
2023-05-14T17:27:21.272Z,101649.59
2023-05-14T17:29:56.500Z,101659.00
2023-05-14T17:32:43.278Z,101650.78
2023-05-14T17:35:17.373Z,101643.72
2023-05-14T17:37:48.992Z,101646.44
2023-05-14T17:40:18.928Z,101643.88
2023-05-14T17:42:48.904Z,101645.56
2023-05-14T17:45:20.954Z,101643.78
2023-05-14T17:47:53.655Z,101643.47
2023-05-14T17:50:25.139Z,101647.84
2023-05-14T17:52:56.722Z,101648.63
2023-05-14T17:55:26.843Z,101645.88
2023-05-14T18:00:44.086Z,101646.66
2023-05-14T18:03:17.788Z,101652.78
2023-05-14T18:05:48.630Z,101653.66
2023-05-14T18:08:18.576Z,101658.00
2023-05-14T18:11:56.818Z,101660.63
2023-05-14T18:14:11.093Z,101672.91
2023-05-14T18:16:41.584Z,101684.22
2023-05-14T18:19:14.449Z,101673.47
2023-05-14T18:21:48.765Z,101682.28
2023-05-14T18:27:34.010Z,101669.69
2023-05-14T18:30:55.250Z,101669.69
2023-05-14T18:36:04.596Z,101678.13
2023-05-14T18:38:36.061Z,101680.66
2023-05-14T18:41:05.950Z,101684.91
2023-05-14T18:43:45.948Z,101699.59
2023-05-14T18:46:16.003Z,101691.31
2023-05-14T18:48:51.196Z,101697.94
2023-05-14T18:51:23.703Z,101696.91
2023-05-14T18:53:53.552Z,101688.00
2023-05-14T18:56:23.383Z,101696.97
2023-05-14T18:58:54.419Z,101699.63
2023-05-14T19:01:26.039Z,101696.91
2023-05-14T19:03:56.657Z,101699.22
2023-05-14T19:06:29.384Z,101695.41
2023-05-14T19:09:00.825Z,101700.34
2023-05-14T19:11:33.709Z,101702.59
2023-05-14T19:14:03.558Z,101704.91
2023-05-14T19:16:33.517Z,101701.38
2023-05-14T19:19:06.628Z,101700.44
2023-05-14T19:21:39.510Z,101698.03
2023-05-14T19:24:11.622Z,101704.13
2023-05-14T19:26:42.233Z,101698.88
2023-05-14T19:29:12.121Z,101697.19
2023-05-14T19:31:41.975Z,101697.19
2023-05-14T19:34:11.872Z,101691.97
2023-05-14T19:36:47.915Z,101691.91
2023-05-14T19:39:19.353Z,101689.22
2023-05-14T19:41:49.152Z,101691.63
2023-05-14T19:44:18.965Z,101697.81
2023-05-14T19:46:48.916Z,101696.00
2023-05-14T19:49:18.773Z,101685.19
2023-05-14T19:51:51.217Z,101686.66
2023-05-14T19:54:21.041Z,101683.13
2023-05-14T19:56:51.183Z,101685.06
2023-05-14T19:59:21.102Z,101676.31
2023-05-14T20:01:51.151Z,101678.88
2023-05-14T20:04:20.945Z,101668.41
2023-05-14T20:06:53.682Z,101674.78
2023-05-14T20:09:23.555Z,101685.44
2023-05-14T20:11:53.392Z,101676.53
2023-05-14T20:14:23.174Z,101672.03
2023-05-14T20:16:53.349Z,101678.13
2023-05-14T20:19:23.809Z,101676.47
2023-05-14T20:21:56.494Z,101668.63
2023-05-14T20:24:26.337Z,101671.28
2023-05-14T20:26:56.925Z,101670.22
2023-05-14T20:29:26.856Z,101660.22
2023-05-14T20:31:57.149Z,101652.28
2023-05-14T20:34:26.975Z,101654.06
2023-05-14T20:37:02.070Z,101656.00
2023-05-14T20:39:32.544Z,101645.81
2023-05-14T20:42:02.360Z,101646.88
2023-05-14T20:44:32.224Z,101644.94
2023-05-14T20:47:02.106Z,101648.28
2023-05-14T20:49:31.986Z,101638.44
2023-05-14T20:52:04.597Z,101634.75
2023-05-14T20:54:36.329Z,101637.25
2023-05-14T20:57:06.299Z,101640.91
2023-05-14T20:59:36.209Z,101640.16
2023-05-14T21:02:06.430Z,101635.06
2023-05-14T21:04:37.061Z,101638.00
2023-05-14T21:07:10.577Z,101634.63
2023-05-14T21:09:40.592Z,101641.03
2023-05-14T21:12:11.551Z,101643.81
2023-05-14T21:14:42.295Z,101643.88
2023-05-14T21:17:12.212Z,101632.97
2023-05-14T21:19:42.170Z,101626.47
2023-05-14T21:22:15.232Z,101632.59
2023-05-14T21:24:45.229Z,101631.56
2023-05-14T21:27:15.206Z,101623.63
2023-05-14T21:29:45.176Z,101624.31
2023-05-14T21:51:36.193Z,101612.16
2023-05-14T21:54:06.130Z,101612.16
2023-05-14T21:56:38.358Z,101617.31
2023-05-14T21:59:08.352Z,101613.63
2023-05-14T22:01:56.039Z,101616.25
2023-05-14T22:04:32.262Z,101616.25
2023-05-14T22:07:15.041Z,101615.41
2023-05-14T22:09:44.981Z,101606.75
2023-05-14T22:12:17.040Z,101603.22
2023-05-14T22:14:49.906Z,101608.69
2023-05-14T22:17:25.706Z,101599.91
2023-05-14T22:19:55.619Z,101588.53
2023-05-14T22:22:28.624Z,101594.78
2023-05-14T22:25:10.775Z,101587.94
2023-05-14T22:27:40.644Z,101593.47
2023-05-14T22:30:13.187Z,101582.06
2023-05-14T22:32:46.307Z,101589.16
2023-05-14T22:35:16.254Z,101577.53
2023-05-14T22:40:25.656Z,101572.63
2023-05-14T22:43:00.927Z,101571.81
2023-05-14T22:45:30.856Z,101579.91
2023-05-14T22:48:00.806Z,101575.72
2023-05-14T22:50:30.763Z,101575.19
2023-05-14T22:53:00.588Z,101569.00
2023-05-14T22:55:33.302Z,101568.16
2023-05-14T22:58:06.548Z,101572.63
2023-05-14T23:00:36.773Z,101571.75
2023-05-14T23:03:06.977Z,101571.91
2023-05-14T23:05:37.035Z,101568.47
2023-05-14T23:08:07.368Z,101554.50
2023-05-14T23:10:41.428Z,101552.00
2023-05-14T23:13:13.510Z,101554.81
2023-05-14T23:15:46.137Z,101543.59
2023-05-14T23:18:16.161Z,101540.09
2023-05-14T23:20:49.845Z,101541.78
2023-05-14T23:23:19.787Z,101540.00
2023-05-14T23:25:52.573Z,101536.31
2023-05-14T23:28:22.420Z,101531.75
2023-05-14T23:30:52.363Z,101526.53
2023-05-14T23:33:22.247Z,101525.75
2023-05-14T23:35:52.355Z,101525.84
2023-05-14T23:38:22.274Z,101532.81
2023-05-14T23:40:54.782Z,101527.34
2023-05-14T23:43:24.647Z,101528.06
2023-05-14T23:45:54.509Z,101523.75
2023-05-14T23:48:24.413Z,101520.84
2023-05-14T23:50:54.279Z,101518.06
2023-05-14T23:53:24.898Z,101508.28
2023-05-14T23:55:57.372Z,101511.78
2023-05-14T23:58:27.326Z,101506.59
